Creek Data

    Home     View Charts     View Raw Data     Messages

ID Distance Battery Voltage Battery Current Internal Temp Internal Humidity External Temp Solar Input rssi snr Time Stamp Record
66732 11.5 3.86 0 63 46 54 5.1 -68 8 02/19/2026 02:45 PM 49557
66731 11.5 3.86 0 60 48 54 5.1 -69 8 02/19/2026 02:30 PM 49556
66730 11.5 4.07 0 58 50 53 5.1 -68 8 02/19/2026 02:15 PM 49555
66729 11.5 3.85 0 58 50 52 5.1 -68 8 02/19/2026 02:00 PM 49554
66728 11.5 4.02 0 60 49 54 5.1 -68 8 02/19/2026 01:45 PM 49553
66727 11.5 3.85 0 55 52 52 5.1 -69 7 02/19/2026 01:30 PM 49552
66726 11.5 3.85 0 56 50 52 5.1 -69 8 02/19/2026 01:15 PM 49551
66725 11.5 3.85 0 59 48 52 5.1 -69 8 02/19/2026 01:00 PM 49550
66724 11.5 3.85 0 60 47 54 5.1 -69 8 02/19/2026 12:45 PM 49549
66723 11.5 3.85 0 57 47 52 5.1 -69 8 02/19/2026 12:30 PM 49548
66722 11.5 3.85 0 57 47 51 5.1 -69 9 02/19/2026 12:15 PM 49547
66721 11.5 3.85 0 56 48 53 5.1 -71 8 02/19/2026 12:00 PM 49546
66720 11.5 4.00 0 53 50 51 5.1 -69 8 02/19/2026 11:45 AM 49545
66719 11.5 3.85 0 52 49 49 5.1 -69 8 02/19/2026 11:30 AM 49544
66718 11.5 3.85 0 50 50 49 5.1 -70 8 02/19/2026 11:15 AM 49543
66717 11.5 3.85 0 50 49 48 5.1 -68 8 02/19/2026 11:00 AM 49542
66716 11.5 3.85 0 50 49 49 5.1 -69 8 02/19/2026 10:45 AM 49541
66715 11.5 3.87 0 49 49 48 5.1 -71 7 02/19/2026 10:30 AM 49540
66714 11.6 3.85 0 49 48 48 5.1 -71 8 02/19/2026 10:15 AM 49539
66713 11.5 3.85 0 47 50 49 5.1 -68 8 02/19/2026 10:00 AM 49538
66712 11.5 3.85 0 45 50 45 5.1 -70 8 02/19/2026 09:45 AM 49537
66711 11.5 4.01 0 45 50 44 5.1 -69 8 02/19/2026 09:30 AM 49536
66710 11.5 3.87 0 44 50 44 5.1 -68 8 02/19/2026 09:15 AM 49535
66709 11.5 3.85 0 44 50 43 5.1 -70 8 02/19/2026 08:45 AM 49533
66708 11.4 3.96 0 43 51 44 4.5 -69 8 02/19/2026 08:30 AM 49532